Time;durP1;ratioP1;P1;durP2;ratioP2;P2;SDS_P1;SDS_P2;PMS_P1;PMS_P2;Temp;Humidity;BMP_temperature;BMP_pressure;BME280_temperature;BME280_humidity;BME280_pressure;Samples;Min_cycle;Max_cycle;Signal;HPM_P1;HPM_P2
2021/07/31 00:01:10;;;;;;;16.38;7.97;;;;;;;27.32;45.91;99442.50;5087544;28;20076;-24
2021/07/31 00:03:36;;;;;;;13.18;7.82;;;;;;;27.39;46.05;99448.22;5087303;28;20038;-24
2021/07/31 00:06:02;;;;;;;14.50;7.88;;;;;;;27.55;45.72;99451.81;5087160;28;20024;-24
2021/07/31 00:08:30;;;;;;;13.43;8.43;;;;;;;27.41;46.15;99441.25;5087141;28;20028;-24
2021/07/31 00:10:56;;;;;;;16.73;8.32;;;;;;;27.27;46.15;99431.81;5087128;28;20024;-24
2021/07/31 00:13:22;;;;;;;14.02;7.55;;;;;;;27.52;45.67;99452.50;5069134;28;20385;-24
2021/07/31 00:15:47;;;;;;;12.68;8.05;;;;;;;27.60;45.73;99453.50;5087280;28;20036;-24
2021/07/31 00:18:13;;;;;;;13.25;8.05;;;;;;;27.80;44.84;99438.81;5087168;28;20036;-24
2021/07/31 00:20:38;;;;;;;14.20;7.85;;;;;;;28.05;44.56;99458.72;5087370;28;20563;-24
2021/07/31 00:23:04;;;;;;;15.73;8.00;;;;;;;28.00;44.92;99455.41;5086917;28;20021;-24
2021/07/31 00:25:29;;;;;;;15.98;8.10;;;;;;;27.52;46.29;99449.75;5087020;28;20032;-24
2021/07/31 00:27:55;;;;;;;13.80;8.15;;;;;;;26.96;47.24;99449.66;5087153;28;20097;-24
2021/07/31 00:30:24;;;;;;;15.27;8.55;;;;;;;26.84;47.49;99428.56;5086863;28;20039;-24
2021/07/31 00:32:50;;;;;;;13.80;7.32;;;;;;;26.64;47.96;99450.22;5086995;28;20453;-24
2021/07/31 00:35:16;;;;;;;12.55;7.07;;;;;;;26.52;48.55;99449.38;5086792;28;20039;-24
2021/07/31 00:37:41;;;;;;;13.00;8.60;;;;;;;26.58;48.13;99448.03;5086994;28;20032;-24
2021/07/31 00:40:09;;;;;;;14.45;7.72;;;;;;;26.90;47.81;99465.50;5087376;28;20028;-24
2021/07/31 00:42:38;;;;;;;16.17;8.27;;;;;;;26.96;47.22;99442.22;5086902;28;20038;-24
2021/07/31 00:45:04;;;;;;;17.17;8.32;;;;;;;27.20;46.87;99457.03;5086579;28;20097;-24
2021/07/31 00:47:30;;;;;;;17.10;7.80;;;;;;;27.77;45.73;99463.38;5089970;28;20067;-25
2021/07/31 00:49:55;;;;;;;13.68;8.27;;;;;;;27.86;45.34;99461.28;5056111;28;20036;-24
2021/07/31 00:52:21;;;;;;;13.57;7.40;;;;;;;27.50;45.80;99454.78;5072587;28;20529;-24
2021/07/31 00:54:46;;;;;;;13.23;7.65;;;;;;;26.91;47.28;99430.72;5090812;28;20028;-24
2021/07/31 00:57:12;;;;;;;12.38;7.78;;;;;;;26.72;48.39;99445.78;5072458;28;20028;-24
2021/07/31 00:59:37;;;;;;;14.35;8.13;;;;;;;27.10;47.39;99452.03;5055884;28;20028;-24
2021/07/31 01:02:03;;;;;;;15.60;8.32;;;;;;;27.09;47.44;99447.69;5091101;28;20028;-24
2021/07/31 01:04:28;;;;;;;11.25;7.65;;;;;;;26.96;47.54;99435.97;5090773;28;20028;-24
2021/07/31 01:06:54;;;;;;;16.88;8.25;;;;;;;27.41;46.91;99454.94;5090705;28;20036;-24
2021/07/31 01:09:19;;;;;;;13.73;7.95;;;;;;;27.49;46.35;99442.25;5090945;28;20756;-24
2021/07/31 01:11:45;;;;;;;18.35;8.88;;;;;;;27.63;46.09;99445.38;5090466;28;20028;-24
2021/07/31 01:14:10;;;;;;;11.80;7.97;;;;;;;27.87;45.07;99457.44;5090561;28;20043;-24
2021/07/31 01:16:36;;;;;;;16.90;9.13;;;;;;;27.62;45.66;99440.25;5072224;28;20035;-24
2021/07/31 01:19:01;;;;;;;13.48;7.70;;;;;;;27.40;46.24;99458.00;5072057;28;20515;-24
2021/07/31 01:21:43;;;;;;;11.55;7.90;;;;;;;26.94;47.46;99430.81;5090517;28;20036;-24
2021/07/31 01:24:10;;;;;;;14.55;8.20;;;;;;;27.04;47.32;99432.31;5090368;28;20035;-24
2021/07/31 01:26:37;;;;;;;20.40;8.75;;;;;;;26.91;47.78;99449.84;5090079;28;20129;-24
2021/07/31 01:29:04;;;;;;;14.70;8.48;;;;;;;27.06;47.15;99430.00;5090053;28;20056;-24
2021/07/31 01:31:29;;;;;;;14.57;8.83;;;;;;;27.40;46.31;99447.06;5090128;28;20169;-24
2021/07/31 01:33:55;;;;;;;17.08;9.13;;;;;;;27.59;45.68;99447.22;5090362;28;20475;-24
2021/07/31 01:36:20;;;;;;;14.43;8.13;;;;;;;27.05;47.26;99433.88;5090181;28;20134;-24
2021/07/31 01:38:46;;;;;;;11.85;8.32;;;;;;;26.62;49.13;99446.22;5089984;28;20024;-24
2021/07/31 01:41:12;;;;;;;14.55;8.60;;;;;;;26.52;49.10;99443.91;5089804;28;20539;-24
2021/07/31 01:43:38;;;;;;;13.27;8.85;;;;;;;26.46;49.00;99444.16;5090274;28;20078;-24
2021/07/31 01:46:03;;;;;;;35.38;9.35;;;;;;;26.06;49.76;99436.56;5089994;28;20500;-24
2021/07/31 01:48:29;;;;;;;14.40;9.00;;;;;;;26.05;50.19;99434.16;5089809;28;20024;-24
2021/07/31 01:50:54;;;;;;;11.40;8.30;;;;;;;26.13;49.74;99438.72;5090091;28;20114;-24
2021/07/31 01:53:20;;;;;;;15.63;9.20;;;;;;;26.59;48.59;99449.66;5089567;28;20415;-23
2021/07/31 01:55:45;;;;;;;16.35;9.23;;;;;;;26.35;49.08;99442.19;5089653;28;20038;-24
2021/07/31 01:58:11;;;;;;;12.13;9.00;;;;;;;25.81;50.29;99426.69;5090007;28;20081;-24
2021/07/31 02:00:36;;;;;;;12.88;8.98;;;;;;;25.54;51.30;99426.13;5089539;28;20032;-24
2021/07/31 02:03:02;;;;;;;12.75;9.00;;;;;;;25.41;51.79;99429.91;5089147;28;20464;-24
2021/07/31 02:05:27;;;;;;;15.35;8.82;;;;;;;25.63;51.82;99436.97;5089566;28;20031;-24
2021/07/31 02:07:53;;;;;;;15.02;9.32;;;;;;;25.86;50.82;99426.47;5089300;28;20032;-24
2021/07/31 02:10:18;;;;;;;13.95;9.32;;;;;;;26.46;49.29;99444.16;5089398;28;20020;-24
2021/07/31 02:12:43;;;;;;;19.52;9.10;;;;;;;26.55;48.96;99432.31;5089220;28;20027;-24
2021/07/31 02:15:09;;;;;;;13.90;9.32;;;;;;;26.74;47.95;99451.69;5089308;28;20376;-24
2021/07/31 02:17:35;;;;;;;14.30;8.95;;;;;;;26.44;49.31;99446.44;5090914;28;20033;-24
2021/07/31 02:20:00;;;;;;;15.20;8.95;;;;;;;25.42;51.65;99431.53;5089564;28;20028;-24
2021/07/31 02:22:26;;;;;;;15.77;9.55;;;;;;;25.65;51.10;99440.94;5089368;28;20032;-24
2021/07/31 02:24:51;;;;;;;18.10;9.60;;;;;;;25.82;50.80;99444.66;5089406;28;20502;-24
2021/07/31 02:27:16;;;;;;;15.57;9.60;;;;;;;26.17;49.99;99449.78;5089009;28;20035;-24
2021/07/31 02:29:42;;;;;;;14.82;9.55;;;;;;;25.67;51.45;99441.41;5089042;28;20419;-24
2021/07/31 02:32:08;;;;;;;18.00;10.27;;;;;;;25.70;51.77;99466.44;5088920;28;20020;-24
2021/07/31 02:34:33;;;;;;;16.77;9.90;;;;;;;25.84;50.70;99451.38;5088810;28;20073;-25
2021/07/31 02:36:59;;;;;;;15.77;10.30;;;;;;;25.83;50.59;99447.06;5088850;28;20028;-24
2021/07/31 02:39:24;;;;;;;15.98;9.95;;;;;;;26.32;49.52;99462.81;5088780;28;20035;-24
2021/07/31 02:41:50;;;;;;;17.98;9.90;;;;;;;26.49;49.08;99466.47;5088837;28;20027;-24
2021/07/31 02:44:15;;;;;;;14.85;9.25;;;;;;;26.08;49.95;99465.50;5088882;28;20028;-24
2021/07/31 02:46:40;;;;;;;15.52;10.25;;;;;;;25.94;50.54;99463.06;5088513;28;20032;-24
2021/07/31 02:49:06;;;;;;;18.65;9.80;;;;;;;25.96;50.01;99450.66;5089061;28;20043;-24
2021/07/31 02:51:31;;;;;;;30.23;10.75;;;;;;;25.55;51.19;99468.66;5088574;28;20028;-24
2021/07/31 02:53:57;;;;;;;22.58;9.63;;;;;;;25.41;52.00;99470.84;5088931;28;20032;-24
2021/07/31 02:56:22;;;;;;;17.48;9.82;;;;;;;25.55;51.07;99452.28;5088691;28;20028;-24
2021/07/31 02:58:48;;;;;;;16.15;9.15;;;;;;;25.10;51.80;99461.09;5088451;28;20035;-24
2021/07/31 03:01:13;;;;;;;15.65;9.70;;;;;;;24.77;53.18;99453.59;5088493;28;20028;-24
2021/07/31 03:03:39;;;;;;;18.90;9.13;;;;;;;24.82;53.30;99463.50;5070247;28;20032;-24
2021/07/31 03:06:04;;;;;;;17.00;9.57;;;;;;;25.25;50.95;99433.25;5088379;28;20388;-24
2021/07/31 03:08:30;;;;;;;17.45;9.40;;;;;;;25.89;49.69;99455.84;5088494;28;20032;-24
2021/07/31 03:10:57;;;;;;;22.13;9.18;;;;;;;26.32;48.53;99462.81;5087700;28;20037;-24
2021/07/31 03:13:22;;;;;;;19.38;10.13;;;;;;;25.96;49.21;99438.94;5088156;28;20039;-24
2021/07/31 03:15:48;;;;;;;16.63;9.20;;;;;;;25.30;50.66;99439.66;5088038;28;20036;-24
2021/07/31 03:18:13;;;;;;;62.90;12.55;;;;;;;25.05;52.11;99455.84;5087945;28;20031;-24
2021/07/31 03:20:44;;;;;;;21.70;8.88;;;;;;;24.85;52.72;99455.47;5088139;28;20389;-24
2021/07/31 03:23:09;;;;;;;20.40;9.98;;;;;;;25.49;51.08;99467.25;5087852;28;20028;-24
2021/07/31 03:25:35;;;;;;;29.55;10.93;;;;;;;25.64;50.25;99444.00;5087762;28;20484;-24
2021/07/31 03:28:00;;;;;;;25.20;10.27;;;;;;;25.67;50.35;99452.34;5088033;28;20071;-24
2021/07/31 03:30:26;;;;;;;23.83;10.50;;;;;;;25.15;51.84;99463.66;5087917;28;20028;-24
2021/07/31 03:32:53;;;;;;;24.17;10.55;;;;;;;25.54;51.03;99456.16;5087749;28;20482;-24
2021/07/31 03:35:18;;;;;;;23.33;10.70;;;;;;;25.91;49.75;99470.00;5087818;28;20036;-25
2021/07/31 03:37:44;;;;;;;23.13;10.05;;;;;;;26.01;49.47;99469.56;5087898;28;20274;-24
2021/07/31 03:40:09;;;;;;;22.35;10.90;;;;;;;25.60;50.58;99470.38;5087536;28;20097;-24
2021/07/31 03:42:35;;;;;;;25.23;11.95;;;;;;;24.86;52.74;99462.50;5087851;28;20020;-24
2021/07/31 03:45:00;;;;;;;22.27;11.98;;;;;;;25.09;52.05;99464.16;5087616;28;20044;-24
2021/07/31 03:47:26;;;;;;;20.67;11.40;;;;;;;25.41;51.15;99468.13;5087555;28;20028;-24
2021/07/31 03:49:51;;;;;;;21.08;12.98;;;;;;;25.67;50.85;99470.66;5087729;28;20028;-24
2021/07/31 03:52:17;;;;;;;17.35;12.30;;;;;;;25.98;50.40;99470.22;5087563;28;20434;-24
2021/07/31 03:54:42;;;;;;;20.83;11.90;;;;;;;26.18;49.94;99479.50;5087543;28;20032;-24
2021/07/31 03:57:08;;;;;;;23.25;12.63;;;;;;;26.34;48.94;99476.94;5087443;28;20032;-24
2021/07/31 03:59:33;;;;;;;25.15;13.20;;;;;;;26.28;49.38;99477.50;5087715;28;20043;-24
2021/07/31 04:01:59;;;;;;;26.00;14.27;;;;;;;25.98;50.28;99477.63;5087415;28;20028;-24
2021/07/31 04:04:27;;;;;;;25.42;13.82;;;;;;;25.53;52.16;99484.56;5087377;28;20692;-24
2021/07/31 04:06:52;;;;;;;31.17;14.85;;;;;;;25.55;52.27;99479.59;5087370;28;20166;-24
2021/07/31 04:09:18;;;;;;;36.83;15.43;;;;;;;26.03;50.67;99494.63;5086973;28;20036;-24
2021/07/31 04:11:43;;;;;;;35.00;16.23;;;;;;;25.71;51.63;99501.63;5087418;28;20039;-24
2021/07/31 04:14:09;;;;;;;22.63;12.95;;;;;;;25.50;52.19;99492.63;5087615;28;20036;-24
2021/07/31 04:16:34;;;;;;;23.80;12.45;;;;;;;25.59;52.04;99496.91;5087654;28;20028;-24
2021/07/31 04:19:00;;;;;;;21.88;12.65;;;;;;;25.50;52.11;99493.44;5087045;28;20506;-24
2021/07/31 04:21:25;;;;;;;22.85;12.70;;;;;;;26.36;49.50;99501.22;5088469;28;20566;-24
2021/07/31 04:23:51;;;;;;;23.02;12.40;;;;;;;26.39;49.98;99501.31;5091410;28;20036;-24
2021/07/31 04:26:16;;;;;;;21.38;12.45;;;;;;;26.45;49.38;99510.88;5091520;28;20032;-24
2021/07/31 04:28:42;;;;;;;20.30;12.40;;;;;;;25.83;50.23;99484.50;5091060;28;20052;-24
2021/07/31 04:31:14;;;;;;;19.45;12.18;;;;;;;25.90;50.90;99512.09;5093389;28;20506;-24
2021/07/31 04:33:40;;;;;;;24.45;13.57;;;;;;;25.66;51.92;99512.75;5091422;28;20028;-24
2021/07/31 04:36:06;;;;;;;28.85;13.02;;;;;;;25.37;52.70;99517.13;5091002;28;20404;-24
2021/07/31 04:38:31;;;;;;;21.08;11.73;;;;;;;25.25;53.41;99520.59;5091185;28;20033;-24
2021/07/31 04:40:57;;;;;;;20.38;12.55;;;;;;;25.71;52.22;99526.19;5091227;28;20027;-24
2021/07/31 04:43:22;;;;;;;18.35;11.57;;;;;;;26.13;51.26;99519.91;5090903;28;20032;-24
2021/07/31 04:45:48;;;;;;;22.15;12.27;;;;;;;26.08;51.47;99517.41;5091064;28;20415;-24
2021/07/31 04:48:13;;;;;;;25.70;11.98;;;;;;;26.11;51.76;99516.72;5091218;28;20036;-24
2021/07/31 04:50:40;;;;;;;17.52;11.43;;;;;;;26.08;51.51;99520.13;5090811;28;20035;-24
2021/07/31 04:53:05;;;;;;;24.17;14.75;;;;;;;26.11;50.62;99527.66;5090429;28;20463;-24
2021/07/31 04:55:31;;;;;;;23.58;15.50;;;;;;;26.25;50.82;99536.34;5090947;28;20036;-24
2021/07/31 04:57:56;;;;;;;35.80;19.40;;;;;;;26.30;50.82;99527.16;5090649;28;20039;-24
2021/07/31 05:00:21;;;;;;;48.88;28.63;;;;;;;26.32;50.83;99533.88;5090742;28;20043;-24
2021/07/31 05:02:47;;;;;;;42.22;26.48;;;;;;;26.43;51.36;99521.38;5090986;28;20800;-24
2021/07/31 05:05:12;;;;;;;50.85;28.15;;;;;;;26.24;50.87;99527.38;5090592;28;20031;-24
2021/07/31 05:07:38;;;;;;;30.77;20.23;;;;;;;26.09;51.16;99519.00;5090649;28;20040;-24
2021/07/31 05:10:04;;;;;;;28.88;19.30;;;;;;;26.31;50.37;99510.41;5090913;28;20871;-24
2021/07/31 05:12:29;;;;;;;28.27;15.18;;;;;;;26.61;50.21;99529.41;5090516;28;20035;-24
2021/07/31 05:14:54;;;;;;;21.00;12.48;;;;;;;26.94;49.10;99536.75;5090343;28;20032;-24
2021/07/31 05:17:20;;;;;;;16.25;10.48;;;;;;;27.04;48.83;99531.59;5090177;28;20118;-24
2021/07/31 05:19:47;;;;;;;15.40;7.80;;;;;;;27.33;48.01;99531.72;5090383;28;20032;-24
2021/07/31 05:22:14;;;;;;;14.93;7.97;;;;;;;27.37;48.33;99527.16;5090186;28;20039;-24
2021/07/31 05:24:39;;;;;;;14.63;8.63;;;;;;;27.36;48.14;99536.50;5090160;28;20028;-24
2021/07/31 05:27:05;;;;;;;17.55;8.98;;;;;;;27.55;47.59;99525.75;5089734;28;20089;-24
2021/07/31 05:29:31;;;;;;;21.35;9.48;;;;;;;27.76;47.47;99541.22;5090117;28;20491;-24
2021/07/31 05:31:57;;;;;;;16.08;8.20;;;;;;;28.11;46.00;99537.91;5089587;28;20024;-24
2021/07/31 05:34:22;;;;;;;18.08;8.57;;;;;;;27.91;47.02;99556.97;5090024;28;20035;-24
2021/07/31 05:36:48;;;;;;;14.38;8.27;;;;;;;28.20;47.02;99558.56;5089979;28;20035;-24
2021/07/31 05:39:13;;;;;;;12.75;8.48;;;;;;;28.04;47.51;99549.50;5089774;28;20036;-24
2021/07/31 05:41:39;;;;;;;22.05;8.80;;;;;;;28.23;47.56;99562.53;5090396;28;20031;-24
2021/07/31 05:44:05;;;;;;;14.95;8.80;;;;;;;28.48;46.54;99541.25;5089933;28;20039;-24
2021/07/31 05:46:30;;;;;;;16.75;8.70;;;;;;;28.30;47.09;99550.97;5090089;28;20020;-24
2021/07/31 05:48:56;;;;;;;16.33;9.77;;;;;;;28.34;47.62;99538.97;5090305;28;20487;-24
2021/07/31 05:51:22;;;;;;;25.75;10.55;;;;;;;28.53;47.31;99554.75;5089626;28;20036;-24
2021/07/31 05:53:47;;;;;;;27.27;16.70;;;;;;;28.85;45.27;99565.72;5090162;28;20101;-24
2021/07/31 05:56:14;;;;;;;15.25;9.95;;;;;;;28.74;45.56;99559.19;5089971;28;20044;-24
2021/07/31 05:58:40;;;;;;;17.27;12.20;;;;;;;29.16;44.84;99558.69;5089370;28;20385;-24
2021/07/31 06:01:06;;;;;;;19.60;13.40;;;;;;;29.48;44.16;99559.41;5089316;28;20043;-24
2021/07/31 06:03:32;;;;;;;16.58;10.98;;;;;;;29.22;44.62;99558.06;5089721;28;20055;-24
2021/07/31 06:05:58;;;;;;;17.70;10.17;;;;;;;29.20;44.43;99543.09;5089558;28;20077;-24
2021/07/31 06:08:23;;;;;;;18.35;9.90;;;;;;;28.77;45.43;99548.31;5089383;28;20028;-24
2021/07/31 06:10:49;;;;;;;17.17;10.27;;;;;;;29.03;45.08;99561.50;5089477;28;20042;-24
2021/07/31 06:13:14;;;;;;;16.77;10.82;;;;;;;29.34;44.29;99553.59;5089130;28;20035;-24
2021/07/31 06:15:42;;;;;;;11.68;8.63;;;;;;;29.51;44.33;99558.69;5089372;28;20031;-24
2021/07/31 06:18:07;;;;;;;;;;;;;;;29.73;43.99;99556.44;5089467;28;20471;-25
2021/07/31 06:20:33;;;;;;;13.13;7.90;;;;;;;29.75;44.05;99551.38;5089337;28;21297;-24
2021/07/31 06:22:59;;;;;;;17.13;8.40;;;;;;;29.63;44.50;99555.81;5088888;28;20262;-24
2021/07/31 06:25:24;;;;;;;15.27;8.50;;;;;;;29.22;46.88;99552.56;5089068;28;20081;-24
2021/07/31 06:27:53;;;;;;;10.20;7.10;;;;;;;29.04;45.99;99535.63;5088006;28;20856;-24
2021/07/31 06:30:19;;;;;;;15.82;7.72;;;;;;;29.14;46.78;99545.31;5089076;28;20099;-24
2021/07/31 06:32:47;;;;;;;13.90;7.95;;;;;;;29.49;45.50;99550.03;5088679;28;20951;-24
2021/07/31 06:35:12;;;;;;;14.10;7.97;;;;;;;29.20;45.91;99548.59;5088863;28;20036;-24
2021/07/31 06:37:37;;;;;;;17.25;8.20;;;;;;;29.68;44.36;99534.72;5089102;28;20728;-24
2021/07/31 06:40:03;;;;;;;13.40;8.02;;;;;;;30.13;44.00;99553.31;5088940;28;20024;-24
2021/07/31 06:42:29;;;;;;;14.60;7.72;;;;;;;29.92;45.05;99550.94;5089289;28;20170;-24
2021/07/31 06:44:54;;;;;;;15.85;7.68;;;;;;;30.18;42.87;99557.72;5088119;28;20028;-24
2021/07/31 06:47:20;;;;;;;11.57;7.97;;;;;;;30.29;43.07;99552.44;5088548;28;20093;-24
2021/07/31 06:49:45;;;;;;;12.13;7.85;;;;;;;30.38;42.18;99551.09;5088626;28;20484;-25
2021/07/31 06:52:13;;;;;;;12.30;8.23;;;;;;;30.69;41.68;99549.28;5088447;28;20028;-24
2021/07/31 06:54:38;;;;;;;10.80;7.68;;;;;;;30.73;41.77;99552.06;5088323;28;20035;-24
2021/07/31 06:57:04;;;;;;;15.88;7.95;;;;;;;30.61;42.25;99564.84;5088116;28;20035;-24
2021/07/31 06:59:29;;;;;;;15.23;7.60;;;;;;;30.70;41.77;99552.81;5088624;28;20016;-24
2021/07/31 07:01:55;;;;;;;21.00;8.57;;;;;;;30.51;42.15;99548.16;5088274;28;20028;-24
2021/07/31 07:04:20;;;;;;;16.58;8.20;;;;;;;30.82;41.71;99556.16;5088313;28;20102;-24
2021/07/31 07:06:46;;;;;;;17.00;7.85;;;;;;;31.15;42.69;99540.97;5088357;28;20479;-24
2021/07/31 07:09:11;;;;;;;13.02;8.00;;;;;;;30.91;42.36;99541.38;5087951;28;20032;-24
2021/07/31 07:11:37;;;;;;;17.40;9.27;;;;;;;30.69;42.10;99538.25;5088034;28;20043;-24
2021/07/31 07:14:03;;;;;;;13.90;7.47;;;;;;;31.31;41.86;99540.03;5088375;28;20038;-24
2021/07/31 07:16:28;;;;;;;12.25;7.40;;;;;;;31.70;40.19;99556.34;5088198;28;20036;-24
2021/07/31 07:18:53;;;;;;;15.55;7.63;;;;;;;31.40;40.18;99560.59;5088321;28;20024;-24
2021/07/31 07:21:19;;;;;;;15.85;8.48;;;;;;;31.71;38.75;99557.91;5088121;28;20093;-24
2021/07/31 07:23:44;;;;;;;14.80;7.85;;;;;;;31.97;39.24;99563.34;5087192;28;20028;-24
2021/07/31 07:26:11;;;;;;;12.38;7.65;;;;;;;31.60;39.75;99553.03;5086614;28;20384;-24
2021/07/31 07:28:37;;;;;;;13.43;7.70;;;;;;;31.84;39.48;99528.94;5068193;28;20047;-24
2021/07/31 07:31:03;;;;;;;18.35;7.93;;;;;;;31.95;40.44;99557.41;5086349;28;20027;-24
2021/07/31 07:33:28;;;;;;;14.85;8.18;;;;;;;31.71;40.09;99552.38;5086531;28;20032;-24
2021/07/31 07:35:55;;;;;;;12.77;7.55;;;;;;;31.99;39.00;99549.19;5086638;28;20096;-24
2021/07/31 07:38:20;;;;;;;19.20;8.32;;;;;;;31.91;38.97;99558.56;5086413;28;20427;-24
2021/07/31 07:40:46;;;;;;;15.02;8.10;;;;;;;32.19;38.42;99549.84;5068321;28;20460;-24
2021/07/31 07:43:11;;;;;;;16.27;8.23;;;;;;;32.22;39.19;99551.84;5086648;28;20090;-24
2021/07/31 07:45:37;;;;;;;15.13;7.30;;;;;;;32.35;37.57;99555.13;5069475;28;20028;-24
2021/07/31 07:48:03;;;;;;;16.17;7.28;;;;;;;32.09;38.30;99545.00;5087580;28;20051;-24
2021/07/31 07:50:28;;;;;;;13.18;7.13;;;;;;;32.39;38.09;99542.97;5087296;28;20111;-24
2021/07/31 07:52:54;;;;;;;13.45;6.80;;;;;;;33.10;36.22;99541.22;5087762;28;20050;-24
2021/07/31 07:55:19;;;;;;;13.57;7.38;;;;;;;32.93;36.91;99548.19;5087393;28;20028;-24
2021/07/31 07:57:45;;;;;;;15.02;7.55;;;;;;;32.80;36.03;99548.47;5087060;28;20032;-24
2021/07/31 08:00:11;;;;;;;17.17;8.85;;;;;;;32.74;37.17;99546.47;5087734;28;20689;-24
2021/07/31 08:02:36;;;;;;;19.40;7.65;;;;;;;32.77;37.19;99545.69;5087743;28;20032;-24
2021/07/31 08:05:02;;;;;;;18.80;7.88;;;;;;;32.69;37.33;99538.50;5087385;28;20119;-24
2021/07/31 08:07:27;;;;;;;15.20;7.28;;;;;;;33.05;36.76;99528.53;5087358;28;20027;-24
2021/07/31 08:09:54;;;;;;;11.18;6.88;;;;;;;33.22;37.75;99519.63;5087197;28;20028;-24
2021/07/31 08:12:19;;;;;;;13.45;7.90;;;;;;;33.69;36.74;99521.84;5087339;28;20078;-24
2021/07/31 08:14:45;;;;;;;14.43;7.22;;;;;;;33.49;35.54;99515.78;5087130;28;20032;-24
2021/07/31 08:17:11;;;;;;;17.88;7.28;;;;;;;33.48;35.98;99512.25;5086887;28;20039;-24
2021/07/31 08:19:36;;;;;;;12.13;7.00;;;;;;;33.42;36.62;99509.03;5087216;28;20036;-24
2021/07/31 08:22:02;;;;;;;13.70;7.80;;;;;;;33.10;36.80;99491.50;5087233;28;20032;-24
2021/07/31 08:24:27;;;;;;;15.43;7.43;;;;;;;33.59;36.01;99513.09;5086975;28;20032;-24
2021/07/31 08:26:53;;;;;;;17.67;7.90;;;;;;;34.27;35.02;99509.78;5087099;28;20106;-24
2021/07/31 08:29:19;;;;;;;16.65;8.27;;;;;;;33.95;35.96;99507.69;5087215;28;20063;-24
2021/07/31 08:31:44;;;;;;;13.80;7.35;;;;;;;33.65;36.10;99509.97;5069327;28;20895;-24
2021/07/31 08:34:10;;;;;;;24.23;8.73;;;;;;;34.03;35.26;99503.78;5087151;28;20040;-24
2021/07/31 08:36:36;;;;;;;14.77;7.50;;;;;;;33.67;35.35;99497.34;5068830;28;20028;-24
2021/07/31 08:39:02;;;;;;;16.60;8.35;;;;;;;34.41;35.05;99495.19;5086832;28;20157;-24
2021/07/31 08:41:28;;;;;;;12.80;7.83;;;;;;;34.55;34.60;99505.44;5087335;28;20037;-24
2021/07/31 08:43:57;;;;;;;12.48;7.45;;;;;;;34.36;34.49;99492.78;5087023;28;20105;-24
2021/07/31 08:46:22;;;;;;;13.88;7.38;;;;;;;34.35;35.83;99489.25;5087313;28;20213;-24
2021/07/31 08:48:47;;;;;;;14.00;7.15;;;;;;;33.91;35.50;99486.75;5087239;28;20040;-22
2021/07/31 08:51:14;;;;;;;11.77;7.05;;;;;;;34.25;36.11;99492.78;5068628;28;20035;-22
2021/07/31 08:53:40;;;;;;;13.50;7.32;;;;;;;34.29;33.69;99487.25;5086866;28;20028;-22
2021/07/31 08:56:05;;;;;;;17.58;8.18;;;;;;;33.80;35.21;99483.97;5087172;28;20412;-22
2021/07/31 08:58:31;;;;;;;15.05;8.23;;;;;;;34.34;33.68;99479.34;5086953;28;20032;-22
2021/07/31 09:00:57;;;;;;;18.02;8.27;;;;;;;34.61;32.92;99470.63;5086913;28;20435;-22
2021/07/31 09:03:23;;;;;;;15.45;8.00;;;;;;;34.84;33.21;99461.13;5068932;28;20039;-22
2021/07/31 09:05:48;;;;;;;15.23;7.80;;;;;;;34.76;32.67;99475.03;5087099;28;20028;-22
2021/07/31 09:08:15;;;;;;;14.20;7.22;;;;;;;35.09;31.63;99450.81;5088950;28;20406;-22
2021/07/31 09:10:42;;;;;;;40.95;12.70;;;;;;;35.33;31.19;99470.53;5090647;28;20035;-22
2021/07/31 09:13:15;;;;;;;14.90;7.32;;;;;;;35.01;31.39;99466.66;5090130;28;20032;-22
2021/07/31 09:15:50;;;;;;;16.83;7.40;;;;;;;35.10;31.62;99454.34;5090785;28;20558;-22
2021/07/31 09:18:26;;;;;;;18.98;7.65;;;;;;;35.17;30.95;99460.72;5072746;28;20070;-22
2021/07/31 09:21:09;;;;;;;17.05;7.35;;;;;;;35.24;32.13;99456.34;5072376;28;20397;-22
2021/07/31 09:23:44;;;;;;;13.25;6.90;;;;;;;35.65;30.90;99464.06;5072837;28;20115;-22
2021/07/31 09:26:10;;;;;;;13.57;7.00;;;;;;;35.85;30.30;99467.97;5090152;28;20122;-22
2021/07/31 09:28:40;;;;;;;20.83;7.95;;;;;;;35.97;29.33;99455.59;5071839;28;20056;-22
2021/07/31 09:31:07;;;;;;;17.98;7.72;;;;;;;36.05;29.50;99456.34;5089620;28;20040;-22
2021/07/31 09:33:32;;;;;;;17.67;7.50;;;;;;;35.70;29.24;99452.59;5072025;28;20031;-22
2021/07/31 09:36:02;;;;;;;16.63;7.80;;;;;;;35.59;28.78;99452.59;5072261;28;20051;-22
2021/07/31 09:38:35;;;;;;;18.55;7.38;;;;;;;36.05;29.57;99448.03;5090056;28;20555;-22
2021/07/31 09:41:36;;;;;;;16.17;8.13;;;;;;;36.45;27.05;99449.31;5071689;28;20032;-23
2021/07/31 09:44:10;;;;;;;18.25;7.70;;;;;;;36.61;27.38;99457.09;5075412;28;20059;-24
2021/07/31 09:46:40;;;;;;;19.33;7.53;;;;;;;36.71;27.10;99456.25;5089674;28;20093;-24
2021/07/31 09:49:07;;;;;;;13.68;7.32;;;;;;;36.36;27.90;99452.56;5089677;28;20032;-24
2021/07/31 09:51:34;;;;;;;16.23;7.18;;;;;;;36.22;28.03;99441.56;5090051;28;20024;-23
2021/07/31 09:54:01;;;;;;;14.98;7.85;;;;;;;36.90;27.21;99427.09;5089926;28;20036;-24
2021/07/31 09:56:27;;;;;;;37.22;8.68;;;;;;;36.84;27.86;99430.72;5090008;28;20028;-24
2021/07/31 09:58:52;;;;;;;16.83;7.45;;;;;;;36.53;28.14;99436.16;5071626;28;20036;-24
2021/07/31 10:01:18;;;;;;;23.75;8.73;;;;;;;36.71;27.23;99442.34;5089537;28;20128;-24
2021/07/31 10:03:43;;;;;;;13.57;7.22;;;;;;;36.34;28.03;99432.75;5071826;28;20039;-24
2021/07/31 10:06:08;;;;;;;24.00;7.82;;;;;;;36.32;28.07;99428.81;5089665;28;20032;-23
2021/07/31 10:08:37;;;;;;;14.85;7.32;;;;;;;36.85;27.18;99418.41;5071437;28;20028;-24
2021/07/31 10:11:03;;;;;;;18.83;7.35;;;;;;;37.15;27.23;99421.28;5071120;28;20035;-24
2021/07/31 10:13:29;;;;;;;18.33;6.68;;;;;;;36.95;26.64;99414.72;5054696;28;20549;-23
2021/07/31 10:15:55;;;;;;;19.63;7.40;;;;;;;36.78;25.75;99408.19;5071274;28;20484;-24
2021/07/31 10:18:23;;;;;;;17.20;7.18;;;;;;;36.56;27.51;99415.91;5088606;28;20278;-24
2021/07/31 10:20:48;;;;;;;15.75;7.57;;;;;;;36.76;27.40;99402.25;5054493;28;20032;-24
2021/07/31 10:23:49;;;;;;;17.67;7.72;;;;;;;36.49;25.92;99377.84;5070727;28;20027;-24
2021/07/31 10:26:14;;;;;;;17.20;7.90;;;;;;;36.75;26.11;99390.31;5031279;28;20044;-24
2021/07/31 10:28:40;;;;;;;16.67;8.30;;;;;;;36.86;26.13;99383.84;5088527;28;20165;-24
2021/07/31 10:31:31;;;;;;;18.33;8.15;;;;;;;37.44;26.56;99384.75;5071155;28;20693;-24
2021/07/31 10:33:57;;;;;;;17.15;8.25;;;;;;;37.39;25.44;99388.00;5070756;28;20086;-24
2021/07/31 10:36:35;;;;;;;15.68;7.80;;;;;;;37.64;25.51;99386.88;5089213;28;20570;-24
2021/07/31 10:39:27;;;;;;;18.05;8.07;;;;;;;38.09;25.33;99394.97;5088272;28;20031;-24
2021/07/31 10:41:59;;;;;;;13.13;6.93;;;;;;;38.29;25.53;99392.22;5077980;28;20196;-24
2021/07/31 10:44:25;;;;;;;13.50;7.35;;;;;;;38.28;23.00;99383.09;5088901;28;20036;-24
2021/07/31 10:47:19;;;;;;;15.73;8.30;;;;;;;38.18;25.63;99392.44;5070926;28;20772;-24
2021/07/31 10:49:45;;;;;;;20.60;8.15;;;;;;;38.07;24.78;99383.44;5088882;28;20024;-24
2021/07/31 10:52:10;;;;;;;23.02;8.52;;;;;;;38.62;25.17;99382.13;5088629;28;20392;-24
2021/07/31 10:54:59;;;;;;;16.60;8.02;;;;;;;38.97;24.85;99385.47;5088551;28;20028;-24
2021/07/31 10:57:53;;;;;;;17.33;8.45;;;;;;;38.87;22.87;99380.84;5088291;28;20024;-24
2021/07/31 11:00:29;;;;;;;18.67;8.65;;;;;;;39.07;22.02;99362.16;5058608;28;20071;-23
2021/07/31 11:02:55;;;;;;;13.20;7.40;;;;;;;39.60;21.79;99367.78;5088321;28;20020;-24
2021/07/31 11:05:20;;;;;;;16.87;8.43;;;;;;;39.03;23.04;99360.63;5088439;28;20042;-23
2021/07/31 11:07:58;;;;;;;16.20;9.13;;;;;;;38.89;23.95;99358.91;5088483;28;20028;-24
2021/07/31 11:10:31;;;;;;;16.38;8.80;;;;;;;38.43;24.83;99333.50;5088568;28;20093;-24
2021/07/31 11:12:57;;;;;;;14.95;8.63;;;;;;;38.56;24.64;99347.63;5088066;28;20473;-24
2021/07/31 11:15:23;;;;;;;16.00;9.20;;;;;;;38.42;24.49;99329.16;5088171;28;20024;-23
2021/07/31 11:17:58;;;;;;;18.50;9.17;;;;;;;38.88;23.85;99337.81;5088138;28;20516;-23
2021/07/31 11:20:35;;;;;;;18.90;8.85;;;;;;;38.99;23.51;99332.84;5087914;28;20305;-24
2021/07/31 11:23:05;;;;;;;19.40;9.23;;;;;;;39.37;22.99;99340.78;5087635;28;20028;-24